Time;durP1;ratioP1;P1;durP2;ratioP2;P2;SDS_P1;SDS_P2;PMS_P1;PMS_P2;Temp;Humidity;BMP_temperature;BMP_pressure;BME280_temperature;BME280_humidity;BME280_pressure;Samples;Min_cycle;Max_cycle;Signal;HPM_P1;HPM_P2
2022/08/22 00:00:46;;;;;;;;;;;;;;;17.02;51.72;96362.50;5073641;28;19970;-72
2022/08/22 00:03:15;;;;;;;;;;;;;;;17.01;51.99;96362.78;5072910;28;20004;-72
2022/08/22 00:05:47;;;;;;;;;;;;;;;16.98;52.08;96369.38;5071743;28;19967;-72
2022/08/22 00:08:13;;;;;;;;;;;;;;;16.96;52.64;96363.53;5072995;28;19957;-72
2022/08/22 00:10:42;;;;;;;;;;;;;;;16.94;52.33;96363.00;5072824;28;19965;-72
2022/08/22 00:13:18;;;;;;;;;;;;;;;16.93;52.03;96356.13;5072700;28;19960;-73
2022/08/22 00:15:54;;;;;;;;;;;;;;;16.93;51.28;96358.00;5073716;28;20455;-72
2022/08/22 00:18:26;;;;;;;;;;;;;;;16.93;51.38;96350.03;5076651;28;19960;-72
2022/08/22 00:21:11;;;;;;;;;;;;;;;16.92;51.32;96351.09;5075105;28;19969;-72
2022/08/22 00:23:45;;;;;;;;;;;;;;;16.90;51.32;96347.91;5076246;28;19956;-72
2022/08/22 00:26:17;;;;;;;;;;;;;;;16.89;51.31;96351.63;5077045;28;19960;-72
2022/08/22 00:28:48;;;;;;;;;;;;;;;16.88;51.24;96347.38;5076171;28;19965;-72
2022/08/22 00:31:20;;;;;;;;;;;;;;;16.83;51.87;96343.63;5076138;28;19953;-72
2022/08/22 00:33:46;;;;;;;;;;;;;;;16.81;51.66;96347.59;5076215;28;19957;-72
2022/08/22 00:36:15;;;;;;;;;;;;;;;16.81;51.47;96350.25;5076094;28;20502;-72
2022/08/22 00:38:45;;;;;;;;;;;;;;;16.80;51.51;96351.28;5076170;28;19957;-72
2022/08/22 00:41:11;;;;;;;;;;;;;;;16.80;51.63;96341.53;5075787;28;19969;-72
2022/08/22 00:43:46;;;;;;;;;;;;;;;16.81;51.73;96348.41;5076285;28;20471;-72
2022/08/22 00:46:21;;;;;;;;;;;;;;;16.85;52.18;96348.69;5064607;28;19962;-72
2022/08/22 00:49:05;;;;;;;;;;;;;;;16.87;52.22;96348.44;5075806;28;19979;-72
2022/08/22 00:51:50;;;;;;;;;;;;;;;16.88;52.41;96348.16;5067683;28;19967;-72
2022/08/22 00:54:30;;;;;;;;;;;;;;;16.89;52.34;96341.81;5075585;28;19951;-73
2022/08/22 00:56:56;;;;;;;;;;;;;;;16.88;52.82;96345.50;5076229;28;20337;-72
2022/08/22 00:59:30;;;;;;;;;;;;;;;16.87;52.77;96351.88;5075846;28;19968;-73
2022/08/22 01:02:11;;;;;;;;;;;;;;;16.86;53.26;96344.19;5075718;28;19969;-72
2022/08/22 01:04:46;;;;;;;;;;;;;;;16.84;53.58;96342.59;5075598;28;19954;-72
2022/08/22 01:07:37;;;;;;;;;;;;;;;16.82;53.70;96343.91;5075813;28;19951;-72
2022/08/22 01:10:03;;;;;;;;;;;;;;;16.80;54.10;96340.72;5075597;28;19967;-72
2022/08/22 01:12:29;;;;;;;;;;;;;;;16.78;53.26;96332.22;5075741;28;19965;-72
2022/08/22 01:14:59;;;;;;;;;;;;;;;16.77;53.44;96339.34;5075544;28;20363;-72
2022/08/22 01:17:44;;;;;;;;;;;;;;;16.76;53.43;96329.81;5075251;28;19962;-72
2022/08/22 01:20:12;;;;;;;;;;;;;;;16.76;53.52;96335.13;5075246;28;19954;-73
2022/08/22 01:22:47;;;;;;;;;;;;;;;16.76;53.62;96329.81;5075127;28;20338;-72
2022/08/22 01:25:32;;;;;;;;;;;;;;;16.74;53.59;96331.94;5075143;28;19967;-72
2022/08/22 01:28:16;;;;;;;;;;;;;;;16.72;53.97;96333.25;5074005;28;19957;-72
2022/08/22 01:30:42;;;;;;;;;;;;;;;16.68;53.97;96335.63;5075682;28;20313;-72
2022/08/22 01:33:16;;;;;;;;;;;;;;;16.64;53.72;96332.69;5074942;28;19959;-72
2022/08/22 01:35:51;;;;;;;;;;;;;;;16.61;54.11;96327.91;5075200;28;20404;-72
2022/08/22 01:38:20;;;;;;;;;;;;;;;16.58;54.29;96338.22;5074889;28;19955;-72
2022/08/22 01:40:59;;;;;;;;;;;;;;;16.53;54.57;96330.28;5074731;28;19965;-73
2022/08/22 01:43:48;;;;;;;;;;;;;;;16.51;54.37;96335.03;5074776;28;19968;-72
2022/08/22 01:46:23;;;;;;;;;;;;;;;16.47;54.99;96339.25;5065414;28;19958;-72
2022/08/22 01:48:57;;;;;;;;;;;;;;;16.45;55.02;96342.16;5074658;28;19957;-73
2022/08/22 01:51:46;;;;;;;;;;;;;;;16.42;55.28;96334.69;5074773;28;19966;-72
2022/08/22 01:54:25;;;;;;;;;;;;;;;16.40;55.27;96339.47;5071423;28;19971;-72
2022/08/22 01:56:57;;;;;;;;;;;;;;;16.37;55.25;96335.47;5075053;28;20413;-72
2022/08/22 01:59:29;;;;;;;;;;;;;;;16.36;55.38;96331.25;5074758;28;19984;-72
2022/08/22 02:01:55;;;;;;;;;;;;;;;16.34;55.62;96329.91;5074453;28;19978;-72
2022/08/22 02:04:32;;;;;;;;;;;;;;;16.31;55.87;96335.72;5074571;28;19982;-72
2022/08/22 02:07:06;;;;;;;;;;;;;;;16.28;55.97;96339.69;5065023;28;19956;-72
2022/08/22 02:09:51;;;;;;;;;;;;;;;16.22;56.38;96338.06;5074547;28;19950;-72
2022/08/22 02:12:35;;;;;;;;;;;;;;;16.18;56.44;96334.31;5072567;28;19962;-72
2022/08/22 02:15:01;;;;;;;;;;;;;;;16.12;56.57;96338.00;5061069;28;19995;-72
2022/08/22 02:17:47;;;;;;;;;;;;;;;16.08;56.58;96328.97;5073557;28;20336;-72
2022/08/22 02:20:16;;;;;;;;;;;;;;;16.05;57.02;96334.78;5072914;28;19970;-74
2022/08/22 02:22:52;;;;;;;;;;;;;;;16.02;56.50;96334.25;5076203;28;19981;-74
2022/08/22 02:25:22;;;;;;;;;;;;;;;15.99;56.64;96329.44;5066154;28;19958;-73
2022/08/22 02:27:53;;;;;;;;;;;;;;;15.97;57.01;96336.03;5075206;28;19962;-73
2022/08/22 02:30:24;;;;;;;;;;;;;;;15.94;57.04;96321.50;5084698;28;20035;-77
2022/08/22 02:32:59;;;;;;;;;;;;;;;15.90;57.12;96328.34;5074978;28;19975;-73
2022/08/22 02:35:28;;;;;;;;;;;;;;;15.87;57.23;96336.75;5061060;28;20427;-73
2022/08/22 02:38:03;;;;;;;;;;;;;;;15.85;57.24;96333.56;5073964;28;19963;-74
2022/08/22 02:40:47;;;;;;;;;;;;;;;15.84;57.80;96337.28;5073568;28;19960;-73
2022/08/22 02:43:25;;;;;;;;;;;;;;;15.81;57.68;96335.13;5066346;28;20356;-73
2022/08/22 02:46:04;;;;;;;;;;;;;;;15.76;57.72;96333.25;5073642;28;20405;-73
2022/08/22 02:48:31;;;;;;;;;;;;;;;15.70;58.07;96330.81;5073738;28;19958;-73
2022/08/22 02:51:26;;;;;;;;;;;;;;;15.66;58.22;96330.50;5058642;28;19953;-73
2022/08/22 02:54:00;;;;;;;;;;;;;;;15.61;59.12;96335.75;5068663;28;19969;-74
2022/08/22 02:56:33;;;;;;;;;;;;;;;15.57;58.84;96324.09;5065998;28;19953;-72
2022/08/22 02:59:13;;;;;;;;;;;;;;;15.51;59.00;96325.09;5073872;28;19966;-72
2022/08/22 03:01:41;;;;;;;;;;;;;;;15.47;58.93;96316.88;5073589;28;19976;-74
2022/08/22 03:04:15;;;;;;;;;;;;;;;15.44;58.92;96314.75;5074071;28;19961;-73
2022/08/22 03:06:42;;;;;;;;;;;;;;;15.40;59.03;96314.44;5073424;28;19961;-73
2022/08/22 03:09:14;;;;;;;;;;;;;;;15.38;59.30;96315.75;5073382;28;19955;-73
2022/08/22 03:11:45;;;;;;;;;;;;;;;15.34;59.07;96312.00;5073803;28;19952;-73
2022/08/22 03:14:15;;;;;;;;;;;;;;;15.31;59.02;96313.31;5074001;28;20440;-72
2022/08/22 03:16:53;;;;;;;;;;;;;;;15.28;59.23;96318.31;5073738;28;19962;-72
2022/08/22 03:19:19;;;;;;;;;;;;;;;15.25;59.55;96316.16;5073645;28;19980;-73
2022/08/22 03:21:50;;;;;;;;;;;;;;;15.20;59.17;96314.25;5072181;28;20437;-75
2022/08/22 03:24:35;;;;;;;;;;;;;;;15.16;59.67;96316.63;5073839;28;20455;-73
2022/08/22 03:27:06;;;;;;;;;;;;;;;15.11;59.51;96316.56;5073105;28;20439;-73
2022/08/22 03:29:38;;;;;;;;;;;;;;;15.07;59.72;96312.81;5073666;28;19954;-73
2022/08/22 03:32:06;;;;;;;;;;;;;;;15.04;60.25;96315.97;5073437;28;19962;-73
2022/08/22 03:34:32;;;;;;;;;;;;;;;14.99;60.01;96310.63;5061478;28;19953;-73
2022/08/22 03:37:04;;;;;;;;;;;;;;;14.96;60.81;96314.56;5073433;28;19958;-72
2022/08/22 03:39:53;;;;;;;;;;;;;;;14.90;60.82;96302.34;5073325;28;19973;-73
2022/08/22 03:42:45;;;;;;;;;;;;;;;14.88;60.87;96307.09;5070345;28;19974;-73
2022/08/22 03:45:11;;;;;;;;;;;;;;;14.87;60.88;96296.78;5073329;28;19963;-73
2022/08/22 03:47:57;;;;;;;;;;;;;;;14.84;61.03;96299.91;5072865;28;19960;-73
2022/08/22 03:50:42;;;;;;;;;;;;;;;14.80;61.60;96307.53;5073720;28;19961;-73
2022/08/22 03:53:23;;;;;;;;;;;;;;;14.78;61.18;96310.44;5076818;28;19978;-73
2022/08/22 03:56:07;;;;;;;;;;;;;;;14.76;61.20;96309.88;5076432;28;19956;-73
2022/08/22 03:58:52;;;;;;;;;;;;;;;14.75;61.32;96312.75;5077480;28;19955;-73
2022/08/22 04:01:30;;;;;;;;;;;;;;;14.71;61.84;96319.56;5076625;28;19968;-73
2022/08/22 04:03:56;;;;;;;;;;;;;;;14.67;61.68;96319.25;5076815;28;19959;-73
2022/08/22 04:06:51;;;;;;;;;;;;;;;14.67;61.58;96321.91;5076767;28;20010;-72
2022/08/22 04:09:26;;;;;;;;;;;;;;;14.67;61.76;96323.75;5076635;28;19965;-73
2022/08/22 04:11:59;;;;;;;;;;;;;;;14.65;61.88;96334.53;5076623;28;20311;-73
2022/08/22 04:15:00;;;;;;;;;;;;;;;14.63;61.33;96331.34;5076727;28;19989;-72
2022/08/22 04:17:38;;;;;;;;;;;;;;;14.60;61.45;96324.72;5066814;28;19967;-73
2022/08/22 04:20:22;;;;;;;;;;;;;;;14.57;61.77;96329.69;5075576;28;20316;-72
2022/08/22 04:22:57;;;;;;;;;;;;;;;14.53;61.95;96328.56;5076197;28;20375;-73
2022/08/22 04:25:37;;;;;;;;;;;;;;;14.49;62.08;96332.72;5076446;28;20322;-72
2022/08/22 04:28:06;;;;;;;;;;;;;;;14.46;62.16;96326.13;5066211;28;19953;-73
2022/08/22 04:30:35;;;;;;;;;;;;;;;14.45;62.06;96326.34;5076155;28;19956;-73
2022/08/22 04:33:21;;;;;;;;;;;;;;;14.42;62.62;96332.91;5076125;28;20335;-73
2022/08/22 04:35:50;;;;;;;;;;;;;;;14.37;62.88;96325.75;5076132;28;19964;-73
2022/08/22 04:38:21;;;;;;;;;;;;;;;14.35;62.96;96329.69;5076310;28;19950;-73
2022/08/22 04:40:56;;;;;;;;;;;;;;;14.32;62.89;96327.50;5076241;28;20363;-73
2022/08/22 04:43:25;;;;;;;;;;;;;;;14.32;62.82;96330.16;5075941;28;19977;-73
2022/08/22 04:45:58;;;;;;;;;;;;;;;14.30;63.14;96335.69;5075847;28;19953;-73
2022/08/22 04:48:31;;;;;;;;;;;;;;;14.28;63.02;96334.31;5076060;28;19959;-73
2022/08/22 04:50:59;;;;;;;;;;;;;;;14.29;63.09;96335.94;5075844;28;19961;-73
2022/08/22 04:53:34;;;;;;;;;;;;;;;14.31;62.79;96337.28;5075736;28;19963;-73
2022/08/22 04:56:09;;;;;;;;;;;;;;;14.31;63.03;96339.91;5075842;28;19954;-73
2022/08/22 04:58:42;;;;;;;;;;;;;;;14.29;63.39;96336.72;5075671;28;19968;-73
2022/08/22 05:01:18;;;;;;;;;;;;;;;14.30;63.40;96338.31;5076343;28;19954;-72
2022/08/22 05:03:48;;;;;;;;;;;;;;;14.36;63.15;96340.00;5074067;28;19964;-73
2022/08/22 05:06:17;;;;;;;;;;;;;;;14.48;63.02;96339.84;5076154;28;20341;-73
2022/08/22 05:08:44;;;;;;;;;;;;;;;14.61;63.19;96338.72;5075488;28;20336;-73
2022/08/22 05:11:11;;;;;;;;;;;;;;;14.76;62.98;96344.19;5075599;28;19954;-73
2022/08/22 05:13:41;;;;;;;;;;;;;;;14.92;62.96;96347.00;5075297;28;19967;-73
2022/08/22 05:16:13;;;;;;;;;;;;;;;15.11;62.42;96340.31;5075395;28;19955;-73
2022/08/22 05:18:45;;;;;;;;;;;;;;;15.37;62.01;96344.03;5075939;28;20318;-73
2022/08/22 05:21:12;;;;;;;;;;;;;;;15.68;61.35;96328.41;5075387;28;19956;-74
2022/08/22 05:23:43;;;;;;;;;;;;;;;16.03;60.96;96324.44;5075325;28;19969;-73
2022/08/22 05:26:10;;;;;;;;;;;;;;;16.38;59.81;96309.81;5075287;28;19957;-73
2022/08/22 05:28:37;;;;;;;;;;;;;;;16.73;58.97;96303.84;5075116;28;20307;-73
2022/08/22 05:31:07;;;;;;;;;;;;;;;17.08;58.30;96305.03;5075328;28;20349;-73
2022/08/22 05:33:36;;;;;;;;;;;;;;;17.34;57.38;96300.53;5075021;28;19969;-73
2022/08/22 05:36:12;;;;;;;;;;;;;;;17.40;56.75;96296.84;5074748;28;19958;-73
2022/08/22 05:38:48;;;;;;;;;;;;;;;17.38;57.04;96303.47;5073660;28;20422;-73
2022/08/22 05:41:21;;;;;;;;;;;;;;;17.62;56.13;96291.28;5075248;28;19957;-73
2022/08/22 05:43:48;;;;;;;;;;;;;;;17.83;55.05;96294.72;5074736;28;19980;-74
2022/08/22 05:46:17;;;;;;;;;;;;;;;17.99;54.82;96292.84;5074788;28;19959;-73
2022/08/22 05:48:48;;;;;;;;;;;;;;;18.29;54.22;96293.84;5074797;28;19955;-73
2022/08/22 05:51:20;;;;;;;;;;;;;;;18.58;53.25;96291.34;5075089;28;19969;-73
2022/08/22 05:53:52;;;;;;;;;;;;;;;18.81;52.33;96289.91;5074792;28;20331;-73
2022/08/22 05:56:27;;;;;;;;;;;;;;;19.09;51.80;96284.97;5061432;28;19950;-73
2022/08/22 05:58:58;;;;;;;;;;;;;;;19.34;51.13;96289.31;5074606;28;20320;-73
2022/08/22 06:01:28;;;;;;;;;;;;;;;19.56;50.92;96280.09;5075068;28;19966;-73
2022/08/22 06:04:00;;;;;;;;;;;;;;;19.71;49.82;96274.66;5074356;28;19962;-73
2022/08/22 06:06:27;;;;;;;;;;;;;;;19.72;49.70;96284.25;5073170;28;19968;-74
2022/08/22 06:09:15;;;;;;;;;;;;;;;19.75;49.46;96283.66;5074528;28;19960;-73
2022/08/22 06:11:44;;;;;;;;;;;;;;;19.89;49.17;96278.50;5074281;28;20415;-73
2022/08/22 06:14:22;;;;;;;;;;;;;;;20.03;49.07;96283.94;5073787;28;20451;-73
2022/08/22 06:16:52;;;;;;;;;;;;;;;20.10;48.49;96276.41;5074118;28;19970;-73
2022/08/22 06:19:19;;;;;;;;;;;;;;;20.17;48.61;96274.19;5074332;28;19975;-74
2022/08/22 06:21:47;;;;;;;;;;;;;;;20.32;48.34;96291.09;5073934;28;19957;-73
2022/08/22 06:24:19;;;;;;;;;;;;;;;20.52;48.25;96287.41;5074415;28;19952;-73
2022/08/22 06:26:48;;;;;;;;;;;;;;;20.67;48.41;96285.34;5060774;28;19953;-74
2022/08/22 06:29:27;;;;;;;;;;;;;;;20.83;48.71;96287.81;5074357;28;19982;-73
2022/08/22 06:31:53;;;;;;;;;;;;;;;20.91;47.75;96294.38;5064218;28;19973;-74
2022/08/22 06:34:22;;;;;;;;;;;;;;;20.83;47.23;96290.47;5074299;28;19968;-74
2022/08/22 06:36:49;;;;;;;;;;;;;;;20.91;47.64;96294.38;5074241;28;20305;-74
2022/08/22 06:39:23;;;;;;;;;;;;;;;20.98;47.27;96284.16;5073700;28;19961;-74
2022/08/22 06:41:56;;;;;;;;;;;;;;;20.85;46.74;96291.78;5073766;28;19959;-74
2022/08/22 06:44:28;;;;;;;;;;;;;;;20.89;47.39;96297.31;5073652;28;19972;-74
2022/08/22 06:46:56;;;;;;;;;;;;;;;20.88;46.72;96301.88;5073663;28;19959;-74
2022/08/22 06:49:23;;;;;;;;;;;;;;;20.82;46.93;96296.88;5073639;28;19955;-74
2022/08/22 06:51:50;;;;;;;;;;;;;;;20.79;47.59;96298.25;5073736;28;19954;-74
2022/08/22 06:54:18;;;;;;;;;;;;;;;20.87;47.79;96318.13;5073770;28;19979;-73
2022/08/22 06:56:46;;;;;;;;;;;;;;;20.98;47.15;96311.59;5073592;28;20449;-74
2022/08/22 06:59:14;;;;;;;;;;;;;;;21.16;47.07;96312.66;5073710;28;19958;-73
2022/08/22 07:02:02;;;;;;;;;;;;;;;21.33;46.60;96314.81;5073800;28;19966;-74
2022/08/22 07:04:28;;;;;;;;;;;;;;;21.26;46.24;96315.19;5063333;28;19963;-74
2022/08/22 07:06:55;;;;;;;;;;;;;;;21.35;46.27;96311.88;5074079;28;20340;-74
2022/08/22 07:09:24;;;;;;;;;;;;;;;21.45;46.02;96307.19;5073811;28;19957;-74
2022/08/22 07:11:51;;;;;;;;;;;;;;;21.46;47.20;96313.31;5073890;28;19963;-74
2022/08/22 07:14:23;;;;;;;;;;;;;;;21.55;46.53;96308.13;5073381;28;19984;-74
2022/08/22 07:16:57;;;;;;;;;;;;;;;21.55;45.40;96303.59;5073558;28;20328;-74
2022/08/22 07:19:31;;;;;;;;;;;;;;;21.50;46.10;96311.66;5073387;28;19957;-74
2022/08/22 07:21:58;;;;;;;;;;;;;;;21.50;46.02;96309.00;5073407;28;19953;-74
2022/08/22 07:24:27;;;;;;;;;;;;;;;21.56;45.71;96313.16;5073632;28;19955;-74
2022/08/22 07:26:55;;;;;;;;;;;;;;;21.54;46.15;96317.22;5075605;28;20447;-74
2022/08/22 07:29:26;;;;;;;;;;;;;;;21.71;46.27;96322.00;5077665;28;19952;-74
2022/08/22 07:32:11;;;;;;;;;;;;;;;21.92;45.96;96303.78;5077444;28;20331;-74
2022/08/22 07:34:39;;;;;;;;;;;;;;;22.10;46.20;96313.59;5077360;28;19956;-74
2022/08/22 07:37:05;;;;;;;;;;;;;;;22.06;45.24;96304.59;5077370;28;19965;-74
2022/08/22 07:39:37;;;;;;;;;;;;;;;22.02;45.16;96314.28;5077118;28;20015;-74
2022/08/22 07:42:17;;;;;;;;;;;;;;;22.01;46.05;96318.81;5076346;28;19959;-74
2022/08/22 07:44:55;;;;;;;;;;;;;;;22.05;45.30;96311.81;5077006;28;19963;-73
2022/08/22 07:47:24;;;;;;;;;;;;;;;22.03;45.00;96316.66;5076998;28;19962;-74
2022/08/22 07:49:53;;;;;;;;;;;;;;;22.08;45.05;96315.78;5077404;28;20025;-74
2022/08/22 07:52:20;;;;;;;;;;;;;;;22.22;45.02;96318.47;5077232;28;20422;-74
2022/08/22 07:55:01;;;;;;;;;;;;;;;22.43;45.08;96317.00;5061695;28;19966;-74
2022/08/22 07:57:30;;;;;;;;;;;;;;;22.54;43.73;96316.81;5077001;28;20455;-74
2022/08/22 07:59:58;;;;;;;;;;;;;;;22.55;42.41;96321.84;5077597;28;19953;-73
2022/08/22 08:02:25;;;;;;;;;;;;;;;22.61;42.14;96319.88;5076986;28;19977;-73
2022/08/22 08:04:52;;;;;;;;;;;;;;;22.72;43.84;96334.63;5076950;28;19966;-73
2022/08/22 08:07:20;;;;;;;;;;;;;;;22.86;43.71;96326.56;5076951;28;19956;-73
2022/08/22 08:09:52;;;;;;;;;;;;;;;23.00;41.34;96322.00;5076629;28;19963;-73
2022/08/22 08:12:20;;;;;;;;;;;;;;;23.10;43.41;96323.69;5076644;28;19969;-73
2022/08/22 08:14:51;;;;;;;;;;;;;;;23.10;42.54;96326.38;5076627;28;20500;-73
2022/08/22 08:17:21;;;;;;;;;;;;;;;23.23;41.56;96327.44;5076796;28;19971;-73
2022/08/22 08:19:49;;;;;;;;;;;;;;;23.34;41.24;96333.34;5077342;28;20420;-73
2022/08/22 08:22:21;;;;;;;;;;;;;;;23.46;41.76;96325.56;5076240;28;20349;-73
2022/08/22 08:24:48;;;;;;;;;;;;;;;23.61;40.40;96319.06;5076407;28;19957;-73
2022/08/22 08:30:04;;;;;;;;;;;;;;;23.73;42.24;96337.22;5076934;28;19971;-74
2022/08/22 08:32:32;;;;;;;;;;;;;;;23.98;40.80;96328.59;5076447;28;20431;-73
2022/08/22 08:35:03;;;;;;;;;;;;;;;24.22;40.16;96317.53;5076081;28;19976;-74
2022/08/22 08:37:34;;;;;;;;;;;;;;;24.37;38.98;96315.53;5076177;28;19952;-73
2022/08/22 08:40:02;;;;;;;;;;;;;;;24.50;38.66;96320.78;5076050;28;19960;-73
2022/08/22 08:42:31;;;;;;;;;;;;;;;24.61;38.53;96310.59;5075428;28;19981;-74
2022/08/22 08:45:06;;;;;;;;;;;;;;;24.75;38.47;96315.03;5076626;28;19957;-73
2022/08/22 08:47:52;;;;;;;;;;;;;;;24.92;39.32;96318.56;5075875;28;19968;-74
2022/08/22 08:50:19;;;;;;;;;;;;;;;25.10;38.58;96308.63;5075915;28;19967;-74
2022/08/22 08:52:45;;;;;;;;;;;;;;;25.30;39.81;96320.66;5075796;28;20414;-74
2022/08/22 08:55:13;;;;;;;;;;;;;;;25.45;37.15;96305.97;5075913;28;19965;-74
2022/08/22 08:57:42;;;;;;;;;;;;;;;25.48;38.00;96302.63;5076441;28;19963;-73
2022/08/22 09:00:13;;;;;;;;;;;;;;;25.49;37.53;96314.97;5075652;28;19969;-74
2022/08/22 09:02:48;;;;;;;;;;;;;;;25.63;37.67;96304.03;5076149;28;19968;-73
2022/08/22 09:05:17;;;;;;;;;;;;;;;25.73;37.38;96298.34;5075748;28;19966;-73
2022/08/22 09:08:06;;;;;;;;;;;;;;;25.85;37.38;96303.06;5075539;28;20341;-74
2022/08/22 09:10:40;;;;;;;;;;;;;;;25.97;37.33;96301.63;5075400;28;19967;-73
2022/08/22 09:13:25;;;;;;;;;;;;;;;26.00;37.04;96293.72;5076351;28;19954;-74
2022/08/22 09:16:12;;;;;;;;;;;;;;;26.11;37.42;96299.53;5062233;28;19988;-73
2022/08/22 09:18:44;;;;;;;;;;;;;;;26.15;37.67;96294.31;5074979;28;20319;-73
2022/08/22 09:21:32;;;;;;;;;;;;;;;26.15;37.67;96299.69;5075783;28;19960;-73
2022/08/22 09:24:19;;;;;;;;;;;;;;;26.19;36.70;96287.19;5075202;28;19968;-74
2022/08/22 09:26:46;;;;;;;;;;;;;;;26.24;36.25;96292.38;5075580;28;19968;-73
2022/08/22 09:29:18;;;;;;;;;;;;;;;26.31;36.22;96290.75;5075085;28;19952;-74
2022/08/22 09:31:55;;;;;;;;;;;;;;;26.47;36.39;96292.91;5075172;28;20421;-73
2022/08/22 09:34:24;;;;;;;;;;;;;;;26.57;36.42;96292.56;5065467;28;19962;-73
2022/08/22 09:37:03;;;;;;;;;;;;;;;26.58;35.52;96293.34;5074339;28;20420;-74
2022/08/22 09:39:34;;;;;;;;;;;;;;;26.32;35.81;96292.31;5075009;28;19954;-73
2022/08/22 09:42:14;;;;;;;;;;;;;;;25.95;35.88;96299.25;5073783;28;19984;-73
2022/08/22 09:44:49;;;;;;;;;;;;;;;25.70;36.99;96299.00;5059295;28;19968;-73
2022/08/22 09:47:25;;;;;;;;;;;;;;;25.65;37.71;96307.19;5075592;28;19979;-73
2022/08/22 09:49:57;;;;;;;;;;;;;;;25.61;37.03;96303.56;5073716;28;19957;-73
2022/08/22 09:52:33;;;;;;;;;;;;;;;25.50;37.35;96307.69;5074703;28;19956;-73
2022/08/22 09:55:05;;;;;;;;;;;;;;;25.36;37.46;96313.22;5074546;28;19950;-73
2022/08/22 09:57:50;;;;;;;;;;;;;;;25.25;36.52;96303.91;5075037;28;20357;-73
2022/08/22 10:00:18;;;;;;;;;;;;;;;25.15;38.31;96310.34;5074758;28;19974;-73
2022/08/22 10:02:50;;;;;;;;;;;;;;;25.07;37.54;96303.09;5074368;28;19974;-74
2022/08/22 10:05:22;;;;;;;;;;;;;;;25.01;38.28;96315.88;5074583;28;19967;-74
2022/08/22 10:08:06;;;;;;;;;;;;;;;24.93;37.50;96311.28;5074730;28;19959;-73
2022/08/22 10:10:35;;;;;;;;;;;;;;;24.84;37.74;96313.97;5074261;28;19969;-73
2022/08/22 10:13:24;;;;;;;;;;;;;;;24.80;38.65;96314.88;5074449;28;19966;-74
2022/08/22 10:15:50;;;;;;;;;;;;;;;24.76;38.27;96316.59;5070974;28;20336;-73
2022/08/22 10:18:16;;;;;;;;;;;;;;;24.70;38.68;96311.41;5074157;28;20071;-73
2022/08/22 10:20:50;;;;;;;;;;;;;;;24.65;38.67;96316.94;5074506;28;19983;-73
2022/08/22 10:23:19;;;;;;;;;;;;;;;24.63;38.27;96315.63;5073968;28;19968;-73
2022/08/22 10:25:48;;;;;;;;;;;;;;;24.62;39.13;96311.38;5073944;28;19981;-73
2022/08/22 10:28:20;;;;;;;;;;;;;;;24.62;37.40;96295.28;5074541;28;19960;-74
2022/08/22 10:30:56;;;;;;;;;;;;;;;24.57;36.91;96298.91;5061723;28;19961;-73
2022/08/22 10:33:22;;;;;;;;;;;;;;;24.70;38.83;96306.03;5073420;28;19957;-73
2022/08/22 10:36:08;;;;;;;;;;;;;;;24.86;36.81;96286.81;5073952;28;19960;-73
2022/08/22 10:38:46;;;;;;;;;;;;;;;24.98;36.53;96286.19;5073753;28;19969;-73
2022/08/22 10:41:24;;;;;;;;;;;;;;;24.95;36.63;96278.75;5073840;28;20357;-73
2022/08/22 10:43:54;;;;;;;;;;;;;;;24.86;35.52;96276.88;5073683;28;19982;-73
2022/08/22 10:46:24;;;;;;;;;;;;;;;24.89;36.70;96283.50;5073708;28;19962;-74
2022/08/22 10:49:00;;;;;;;;;;;;;;;25.22;37.32;96285.75;5074137;28;20314;-73
2022/08/22 10:51:33;;;;;;;;;;;;;;;25.62;36.46;96272.94;5073776;28;19966;-73
2022/08/22 10:54:11;;;;;;;;;;;;;;;26.00;35.83;96266.84;5074074;28;19962;-73
2022/08/22 10:56:41;;;;;;;;;;;;;;;26.38;32.85;96249.91;5074092;28;20339;-73
2022/08/22 10:59:40;;;;;;;;;;;;;;;26.61;32.80;96261.22;5073545;28;19958;-73
2022/08/22 11:02:23;;;;;;;;;;;;;;;26.78;32.51;96254.91;5067627;28;19965;-73
2022/08/22 11:04:49;;;;;;;;;;;;;;;26.95;33.75;96258.63;5073375;28;19986;-73
2022/08/22 11:07:38;;;;;;;;;;;;;;;27.07;32.41;96258.69;5073837;28;19960;-73
2022/08/22 11:10:08;;;;;;;;;;;;;;;27.27;31.77;96249.81;5073460;28;20334;-74
2022/08/22 11:12:38;;;;;;;;;;;;;;;27.50;32.29;96254.81;5073422;28;19970;-73
2022/08/22 11:15:04;;;;;;;;;;;;;;;27.61;31.05;96253.28;5073476;28;19993;-73
2022/08/22 11:17:50;;;;;;;;;;;;;;;27.62;30.68;96252.16;5073241;28;20075;-74
2022/08/22 11:20:22;;;;;;;;;;;;;;;27.82;31.60;96253.22;5062295;28;20002;-73
2022/08/22 11:23:06;;;;;;;;;;;;;;;28.07;30.43;96248.66;5073721;28;19965;-74
2022/08/22 11:25:40;;;;;;;;;;;;;;;27.99;29.13;96246.88;5064372;28;19957;-74
2022/08/22 11:28:06;;;;;;;;;;;;;;;28.00;29.15;96244.97;5073196;28;19968;-73
2022/08/22 11:30:35;;;;;;;;;;;;;;;27.93;28.49;96246.31;5073404;28;20001;-73
2022/08/22 11:33:10;;;;;;;;;;;;;;;28.04;30.90;96252.06;5073200;28;20298;-73
2022/08/22 11:35:40;;;;;;;;;;;;;;;28.39;30.67;96242.72;5073635;28;20353;-73
2022/08/22 11:38:07;;;;;;;;;;;;;;;28.67;28.46;96232.06;5073156;28;20420;-73
2022/08/22 11:40:39;;;;;;;;;;;;;;;28.77;28.38;96230.78;5073650;28;19970;-73
2022/08/22 11:43:05;;;;;;;;;;;;;;;28.86;27.53;96221.44;5072973;28;19975;-73
2022/08/22 11:45:36;;;;;;;;;;;;;;;28.99;30.15;96232.19;5073236;28;19970;-73
2022/08/22 11:48:05;;;;;;;;;;;;;;;29.17;29.51;96230.00;5074224;28;19956;-74
2022/08/22 11:50:36;;;;;;;;;;;;;;;29.46;29.30;96229.66;5073228;28;19965;-74
2022/08/22 11:53:05;;;;;;;;;;;;;;;29.73;27.70;96217.28;5073108;28;20309;-73
2022/08/22 11:55:37;;;;;;;;;;;;;;;29.84;25.67;96208.63;5072993;28;19963;-73
2022/08/22 11:58:21;;;;;;;;;;;;;;;30.04;26.87;96215.69;5072944;28;19961;-73
2022/08/22 12:01:05;;;;;;;;;;;;;;;30.07;27.26;96208.78;5072093;28;19966;-74
2022/08/22 12:03:31;;;;;;;;;;;;;;;30.21;27.45;96214.53;5058926;28;19976;-73
2022/08/22 12:05:57;;;;;;;;;;;;;;;30.44;27.90;96213.91;5073550;28;19958;-73
2022/08/22 12:08:32;;;;;;;;;;;;;;;30.60;26.66;96211.19;5073157;28;19961;-73
2022/08/22 12:11:07;;;;;;;;;;;;;;;30.54;26.53;96218.78;5072311;28;20323;-73
2022/08/22 12:13:39;;;;;;;;;;;;;;;30.37;26.66;96209.13;5067510;28;19968;-73
2022/08/22 12:16:05;;;;;;;;;;;;;;;30.18;25.34;96204.44;5077072;28;19990;-74
2022/08/22 12:18:54;;;;;;;;;;;;;;;30.05;27.05;96216.47;5076547;28;20406;-73
2022/08/22 12:21:28;;;;;;;;;;;;;;;29.96;27.72;96216.63;5076411;28;20418;-73
2022/08/22 12:23:54;;;;;;;;;;;;;;;29.89;27.96;96217.25;5076350;28;19987;-73
2022/08/22 12:26:44;;;;;;;;;;;;;;;29.83;25.18;96207.84;5076453;28;19999;-73
2022/08/22 12:29:20;;;;;;;;;;;;;;;29.74;26.24;96205.31;5073338;28;20300;-74
2022/08/22 12:32:05;;;;;;;;;;;;;;;29.61;25.53;96209.22;5076318;28;19953;-73
2022/08/22 12:34:36;;;;;;;;;;;;;;;29.52;26.89;96206.66;5076347;28;19956;-74
2022/08/22 12:37:02;;;;;;;;;;;;;;;29.14;27.15;96207.19;5076136;28;19956;-73
2022/08/22 12:39:39;;;;;;;;;;;;;;;28.92;27.27;96213.88;5076535;28;19972;-73
2022/08/22 12:42:14;;;;;;;;;;;;;;;28.67;25.93;96208.53;5076184;28;20452;-73
2022/08/22 12:44:49;;;;;;;;;;;;;;;28.47;26.30;96207.53;5066396;28;19982;-73
2022/08/22 12:47:34;;;;;;;;;;;;;;;28.19;26.85;96206.69;5075956;28;19952;-73
2022/08/22 12:49:59;;;;;;;;;;;;;;;27.93;27.67;96205.09;5075942;28;19960;-74
2022/08/22 12:52:37;;;;;;;;;;;;;;;27.72;26.84;96205.94;5075975;28;19966;-73
2022/08/22 12:55:12;;;;;;;;;;;;;;;27.61;28.37;96206.69;5075774;28;20428;-73
2022/08/22 12:57:41;;;;;;;;;;;;;;;27.51;27.46;96205.25;5076289;28;19971;-74
2022/08/22 13:00:19;;;;;;;;;;;;;;;27.39;27.97;96199.81;5075642;28;19952;-73
2022/08/22 13:02:45;;;;;;;;;;;;;;;27.27;27.26;96198.66;5075859;28;19964;-73
2022/08/22 13:05:16;;;;;;;;;;;;;;;27.13;28.18;96201.63;5074269;28;19966;-73
2022/08/22 13:07:43;;;;;;;;;;;;;;;27.03;28.68;96207.41;5075503;28;20091;-73
2022/08/22 13:10:15;;;;;;;;;;;;;;;27.01;28.16;96198.09;5063791;28;19964;-73
2022/08/22 13:12:45;;;;;;;;;;;;;;;27.03;28.75;96195.84;5075482;28;19983;-74
2022/08/22 13:15:22;;;;;;;;;;;;;;;27.11;29.09;96197.69;5075501;28;20440;-73
2022/08/22 13:17:49;;;;;;;;;;;;;;;26.98;28.63;96202.22;5075626;28;19969;-74
2022/08/22 13:20:27;;;;;;;;;;;;;;;26.98;29.10;96198.72;5075363;28;20423;-73
2022/08/22 13:22:53;;;;;;;;;;;;;;;26.99;29.33;96198.41;5075424;28;19964;-73